createdAt,value
2023-01-26T00:01:57.788Z,88.31
2023-01-26T00:04:29.001Z,88.73
2023-01-26T00:06:59.754Z,88.46
2023-01-26T00:09:31.179Z,89.05
2023-01-26T00:11:59.035Z,88.34
2023-01-26T00:14:27.367Z,87.56
2023-01-26T00:16:55.240Z,87.81
2023-01-26T00:19:23.181Z,88.25
2023-01-26T00:21:51.341Z,88.26
2023-01-26T00:24:19.167Z,88.06
2023-01-26T00:26:47.054Z,88.15
2023-01-26T00:29:15.250Z,88.22
2023-01-26T00:31:46.038Z,88.28
2023-01-26T00:34:15.465Z,88.03
2023-01-26T00:36:43.614Z,88.07
2023-01-26T00:39:11.268Z,88.42
2023-01-26T00:41:57.705Z,88.65
2023-01-26T00:44:25.920Z,88.66
2023-01-26T00:46:53.886Z,88.57
2023-01-26T00:49:21.643Z,88.74
2023-01-26T00:51:49.865Z,89.02
2023-01-26T00:54:17.647Z,88.63
2023-01-26T00:56:47.390Z,88.66
2023-01-26T00:59:15.595Z,88.71
2023-01-26T01:01:46.742Z,88.51
2023-01-26T01:04:15.346Z,88.68
2023-01-26T01:06:43.966Z,88.94
2023-01-26T01:09:14.698Z,89.17
2023-01-26T01:11:44.107Z,89.08
2023-01-26T01:14:13.952Z,88.59
2023-01-26T01:16:42.000Z,88.07
2023-01-26T01:19:15.609Z,88.21
2023-01-26T01:21:46.950Z,88.77
2023-01-26T01:24:14.969Z,89.13
2023-01-26T01:26:43.495Z,88.87
2023-01-26T01:29:14.039Z,88.63
2023-01-26T01:31:43.637Z,89.00
2023-01-26T01:34:11.962Z,88.52
2023-01-26T01:36:42.618Z,88.58
2023-01-26T01:39:13.671Z,88.07
2023-01-26T01:41:41.912Z,88.05
2023-01-26T01:44:24.643Z,87.81
2023-01-26T01:46:57.604Z,88.29
2023-01-26T01:49:48.305Z,87.76
2023-01-26T01:52:30.539Z,88.37
2023-01-26T01:55:10.844Z,88.11
2023-01-26T01:57:52.935Z,87.79
2023-01-26T02:00:24.152Z,87.80
2023-01-26T02:03:12.210Z,88.39
2023-01-26T02:06:18.692Z,87.90
2023-01-26T02:08:55.741Z,88.24
2023-01-26T02:11:49.002Z,88.55
2023-01-26T02:14:17.301Z,88.53
2023-01-26T02:16:45.176Z,88.50
2023-01-26T02:19:27.740Z,88.68
2023-01-26T02:22:04.591Z,88.46
2023-01-26T02:24:37.609Z,88.75
2023-01-26T02:27:06.456Z,89.06
2023-01-26T02:29:38.307Z,88.81
2023-01-26T02:32:07.096Z,88.56
2023-01-26T02:34:38.076Z,88.15
2023-01-26T02:37:15.277Z,88.02
2023-01-26T02:39:59.133Z,87.73
2023-01-26T02:42:38.893Z,87.69
2023-01-26T02:45:08.107Z,87.77
2023-01-26T02:47:36.392Z,87.99
2023-01-26T02:50:10.484Z,87.71
2023-01-26T02:52:43.135Z,87.96
2023-01-26T02:55:28.715Z,88.30
2023-01-26T02:58:06.233Z,88.15
2023-01-26T03:00:42.301Z,87.81
2023-01-26T03:03:15.660Z,87.82
2023-01-26T03:05:43.605Z,87.72
2023-01-26T03:08:12.268Z,88.30
2023-01-26T03:10:40.289Z,88.04
2023-01-26T03:13:08.168Z,87.93
2023-01-26T03:15:44.028Z,87.67
2023-01-26T03:18:36.314Z,87.70
2023-01-26T03:21:28.884Z,87.78
2023-01-26T03:24:15.589Z,87.71
2023-01-26T03:27:16.595Z,87.51
2023-01-26T03:29:45.030Z,87.65
2023-01-26T03:32:13.704Z,87.76
2023-01-26T03:34:45.324Z,87.36
2023-01-26T03:37:13.693Z,87.52
2023-01-26T03:40:00.796Z,87.47
2023-01-26T03:42:49.589Z,87.25
2023-01-26T03:45:36.097Z,87.13
2023-01-26T03:48:28.213Z,87.09
2023-01-26T03:51:15.155Z,86.80
2023-01-26T03:54:03.140Z,86.43
2023-01-26T03:56:34.915Z,86.82
2023-01-26T03:59:12.626Z,87.24
2023-01-26T04:02:09.011Z,87.27
2023-01-26T04:04:55.991Z,87.14
2023-01-26T04:07:42.688Z,87.48
2023-01-26T04:10:11.743Z,87.22
2023-01-26T04:12:41.278Z,87.22
2023-01-26T04:15:29.240Z,87.13
2023-01-26T04:18:15.626Z,87.31
2023-01-26T04:21:02.471Z,87.00
2023-01-26T04:23:31.707Z,87.32
2023-01-26T04:25:59.880Z,87.85
2023-01-26T04:28:27.744Z,87.38
2023-01-26T04:30:55.599Z,87.16
2023-01-26T04:33:23.861Z,87.18
2023-01-26T04:35:52.065Z,87.47
2023-01-26T04:38:21.223Z,87.38
2023-01-26T04:40:59.769Z,87.69
2023-01-26T04:43:29.144Z,87.60
2023-01-26T04:46:03.673Z,87.08
2023-01-26T04:48:35.196Z,86.74
2023-01-26T04:51:16.101Z,86.94
2023-01-26T04:53:44.129Z,86.93
2023-01-26T04:56:24.239Z,86.82
2023-01-26T04:58:53.626Z,87.06
2023-01-26T05:01:22.610Z,87.45
2023-01-26T05:03:54.524Z,87.66
2023-01-26T05:06:23.647Z,87.99
2023-01-26T05:08:51.887Z,87.54
2023-01-26T05:11:19.868Z,87.38
2023-01-26T05:13:48.721Z,87.30
2023-01-26T05:16:17.980Z,87.67
2023-01-26T05:18:48.880Z,87.51
2023-01-26T05:21:20.197Z,87.48
2023-01-26T05:23:48.560Z,86.98
2023-01-26T05:26:18.521Z,87.22
2023-01-26T05:28:47.233Z,86.88
2023-01-26T05:31:18.315Z,86.36
2023-01-26T05:33:49.725Z,86.32
2023-01-26T05:36:19.627Z,87.00
2023-01-26T05:38:47.859Z,86.65
2023-01-26T05:41:16.237Z,86.83
2023-01-26T05:43:45.227Z,86.96
2023-01-26T05:46:16.757Z,87.33
2023-01-26T05:48:47.588Z,87.15
2023-01-26T05:51:15.785Z,86.79
2023-01-26T05:53:43.697Z,86.32
2023-01-26T05:56:12.256Z,86.54
2023-01-26T05:58:41.035Z,86.17
2023-01-26T06:01:08.947Z,86.15
2023-01-26T06:03:39.589Z,85.88
2023-01-26T06:06:07.848Z,85.91
2023-01-26T06:08:36.896Z,86.11
2023-01-26T06:11:06.136Z,85.66
2023-01-26T06:13:34.646Z,85.90
2023-01-26T06:16:06.189Z,85.10
2023-01-26T06:18:41.169Z,85.32
2023-01-26T06:21:10.735Z,85.42
2023-01-26T06:23:42.509Z,85.31
2023-01-26T06:26:13.785Z,85.22
2023-01-26T06:28:42.866Z,84.95
2023-01-26T06:31:11.614Z,85.21
2023-01-26T06:33:43.036Z,84.67
2023-01-26T06:36:16.060Z,84.68
2023-01-26T06:38:49.142Z,84.48
2023-01-26T06:41:18.466Z,84.54
2023-01-26T06:43:48.887Z,84.38
2023-01-26T06:46:18.362Z,83.93
2023-01-26T06:48:47.708Z,83.63
2023-01-26T06:51:16.342Z,83.57
2023-01-26T06:53:51.944Z,83.66
2023-01-26T06:56:24.239Z,82.96
2023-01-26T06:58:55.947Z,83.33
2023-01-26T07:01:27.421Z,82.78
2023-01-26T07:03:57.223Z,82.48
2023-01-26T07:06:25.541Z,82.35
2023-01-26T07:08:54.650Z,83.10
2023-01-26T07:11:25.687Z,82.53
2023-01-26T07:13:54.882Z,82.83
2023-01-26T07:16:23.634Z,82.09
2023-01-26T07:18:54.484Z,82.07
2023-01-26T07:21:24.219Z,81.53
2023-01-26T07:23:54.571Z,81.44
2023-01-26T07:26:23.769Z,81.20
2023-01-26T07:28:51.803Z,81.30
2023-01-26T07:31:24.216Z,81.00
2023-01-26T07:33:52.162Z,80.70
2023-01-26T07:36:22.288Z,80.93
2023-01-26T07:38:53.370Z,80.62
2023-01-26T07:41:24.069Z,81.11
2023-01-26T07:43:53.116Z,80.82
2023-01-26T07:46:23.828Z,81.08
2023-01-26T07:48:53.421Z,80.50
2023-01-26T07:51:24.129Z,80.14
2023-01-26T07:53:56.823Z,80.27
2023-01-26T07:56:25.903Z,79.92
2023-01-26T07:58:56.085Z,79.63
2023-01-26T08:01:25.964Z,79.48
2023-01-26T08:03:56.357Z,79.06
2023-01-26T08:06:26.993Z,79.07
2023-01-26T08:08:57.992Z,79.38
2023-01-26T08:11:27.207Z,79.21
2023-01-26T08:13:56.189Z,79.33
2023-01-26T08:16:28.552Z,79.71
2023-01-26T08:18:56.348Z,79.37
2023-01-26T08:21:26.203Z,79.05
2023-01-26T08:23:55.809Z,78.86
2023-01-26T08:26:25.606Z,78.91
2023-01-26T08:28:58.157Z,78.78
2023-01-26T08:31:29.578Z,79.08
2023-01-26T08:34:00.760Z,79.01
2023-01-26T08:36:32.909Z,78.76
2023-01-26T08:39:03.039Z,79.29
2023-01-26T08:41:33.310Z,78.92
2023-01-26T08:44:01.774Z,78.58
2023-01-26T08:46:34.409Z,78.69
2023-01-26T08:49:04.673Z,78.44
2023-01-26T08:51:32.486Z,78.00
2023-01-26T08:54:08.430Z,78.61
2023-01-26T08:56:40.136Z,78.58
2023-01-26T08:59:11.361Z,78.69
2023-01-26T09:01:43.049Z,79.34
2023-01-26T09:04:14.346Z,78.74
2023-01-26T09:06:43.583Z,79.18
2023-01-26T09:09:14.700Z,79.07
2023-01-26T09:11:46.220Z,78.90
2023-01-26T09:14:17.524Z,78.73
2023-01-26T09:16:48.929Z,78.91
2023-01-26T09:19:20.712Z,79.05
2023-01-26T09:21:57.210Z,78.88
2023-01-26T09:24:27.159Z,78.29
2023-01-26T09:26:57.177Z,78.66
2023-01-26T09:29:26.011Z,78.64
2023-01-26T09:32:01.880Z,78.44
2023-01-26T09:34:32.539Z,77.85
2023-01-26T09:37:03.704Z,77.95
2023-01-26T09:39:35.002Z,77.22
2023-01-26T09:42:11.368Z,77.08
2023-01-26T09:45:18.012Z,77.24
2023-01-26T09:48:12.740Z,77.57
2023-01-26T09:51:28.690Z,77.87
2023-01-26T09:54:28.773Z,77.98
2023-01-26T09:57:02.533Z,77.99
2023-01-26T10:00:04.667Z,77.60
2023-01-26T10:03:00.576Z,77.19
2023-01-26T10:05:45.181Z,77.29
2023-01-26T10:08:16.103Z,77.28
2023-01-26T10:10:56.644Z,77.50
2023-01-26T10:13:29.836Z,77.54
2023-01-26T10:16:13.236Z,77.53
2023-01-26T10:19:27.215Z,78.02
2023-01-26T10:22:04.773Z,78.35
2023-01-26T10:24:37.677Z,77.99
2023-01-26T10:27:16.957Z,78.69
2023-01-26T10:29:47.478Z,77.75
2023-01-26T10:32:21.569Z,77.83
2023-01-26T10:34:54.223Z,78.22
2023-01-26T10:37:30.374Z,78.44
2023-01-26T10:40:11.317Z,78.71
2023-01-26T10:42:44.650Z,78.85
2023-01-26T10:45:33.717Z,78.26
2023-01-26T10:48:13.735Z,78.76
2023-01-26T10:50:45.990Z,79.07
2023-01-26T10:53:22.429Z,78.87
2023-01-26T10:56:14.639Z,79.12
2023-01-26T10:58:57.551Z,79.09
2023-01-26T11:01:28.263Z,79.63
2023-01-26T11:04:15.048Z,79.81
2023-01-26T11:06:49.057Z,79.93
2023-01-26T11:09:30.817Z,79.40
2023-01-26T11:12:08.959Z,79.44
2023-01-26T11:14:39.656Z,79.61
2023-01-26T11:17:26.463Z,79.66
2023-01-26T11:20:14.344Z,79.98
2023-01-26T11:23:13.793Z,80.04
2023-01-26T11:26:24.464Z,79.99
2023-01-26T11:29:00.735Z,79.93
2023-01-26T11:32:08.395Z,80.23
2023-01-26T11:34:58.081Z,80.57
2023-01-26T11:37:47.149Z,80.03
2023-01-26T11:40:28.204Z,80.55
2023-01-26T11:43:22.312Z,80.62
2023-01-26T11:46:09.352Z,80.50
2023-01-26T11:49:15.553Z,80.45
2023-01-26T11:51:51.556Z,80.68
2023-01-26T11:54:21.329Z,80.99
2023-01-26T11:57:28.106Z,81.58
2023-01-26T12:00:30.541Z,82.42
2023-01-26T12:03:49.825Z,82.30
2023-01-26T12:06:21.815Z,82.05
2023-01-26T12:09:26.274Z,82.03
2023-01-26T12:12:10.975Z,82.19
2023-01-26T12:14:53.546Z,82.00
2023-01-26T12:17:29.749Z,83.17
2023-01-26T12:20:32.287Z,82.93
2023-01-26T12:23:03.049Z,82.61
2023-01-26T12:25:39.138Z,82.41
2023-01-26T12:28:57.561Z,82.78
2023-01-26T12:31:45.566Z,83.56
2023-01-26T12:34:19.114Z,83.29
2023-01-26T12:37:15.390Z,82.75
2023-01-26T12:40:02.639Z,82.98
2023-01-26T12:42:56.342Z,82.96
2023-01-26T12:45:35.395Z,83.10
2023-01-26T12:48:22.349Z,83.62
2023-01-26T12:50:59.733Z,83.03
2023-01-26T12:54:00.655Z,82.92
2023-01-26T12:56:36.178Z,83.45
2023-01-26T12:59:46.950Z,82.24
2023-01-26T13:02:38.598Z,82.89
2023-01-26T13:05:10.323Z,83.77
2023-01-26T13:07:42.623Z,83.03
2023-01-26T13:13:15.304Z,84.12
2023-01-26T13:15:47.343Z,84.08
2023-01-26T13:18:24.667Z,84.21
2023-01-26T13:21:01.370Z,84.50
2023-01-26T13:23:50.084Z,84.28
2023-01-26T13:27:00.572Z,85.44
2023-01-26T13:29:33.108Z,83.90
2023-01-26T13:32:12.062Z,85.14
2023-01-26T13:35:05.666Z,84.86
2023-01-26T13:37:54.368Z,86.39
2023-01-26T13:40:32.749Z,85.39
2023-01-26T13:43:27.783Z,85.75
2023-01-26T13:46:12.636Z,85.47
2023-01-26T13:48:51.391Z,86.04
2023-01-26T13:51:29.266Z,85.95
2023-01-26T13:54:19.559Z,85.65
2023-01-26T13:57:14.121Z,85.64
2023-01-26T14:00:01.555Z,86.00
2023-01-26T14:02:41.227Z,85.46
2023-01-26T14:05:22.808Z,85.79
2023-01-26T14:07:59.122Z,85.93
2023-01-26T14:10:33.867Z,85.78
2023-01-26T14:13:04.508Z,85.69
2023-01-26T14:15:33.766Z,87.39
2023-01-26T14:18:05.975Z,86.36
2023-01-26T14:20:43.841Z,87.31
2023-01-26T14:23:21.672Z,86.88
2023-01-26T14:26:06.352Z,87.23
2023-01-26T14:28:42.690Z,86.74
2023-01-26T14:31:22.629Z,87.31
2023-01-26T14:34:00.241Z,87.08
2023-01-26T14:36:39.924Z,86.54
2023-01-26T14:39:24.165Z,87.22
2023-01-26T14:41:57.291Z,87.71
2023-01-26T14:44:29.317Z,87.21
2023-01-26T14:47:08.587Z,87.20
2023-01-26T14:49:59.062Z,88.11
2023-01-26T14:52:40.713Z,86.64
2023-01-26T14:55:29.320Z,87.58
2023-01-26T14:58:02.433Z,87.81
2023-01-26T15:00:38.265Z,87.10
2023-01-26T15:03:39.895Z,86.93
2023-01-26T15:06:19.381Z,87.20
2023-01-26T15:09:23.706Z,87.85
2023-01-26T15:12:19.545Z,88.25
2023-01-26T15:15:00.550Z,86.76
2023-01-26T15:17:46.097Z,87.69
2023-01-26T15:20:25.170Z,88.14
2023-01-26T15:23:00.019Z,88.65
2023-01-26T15:25:35.443Z,87.48
2023-01-26T15:28:06.697Z,87.95
2023-01-26T15:30:38.807Z,88.03
2023-01-26T15:33:09.614Z,88.45
2023-01-26T15:36:02.414Z,88.26
2023-01-26T15:38:32.640Z,88.23
2023-01-26T15:41:11.822Z,87.82
2023-01-26T15:43:48.149Z,88.27
2023-01-26T15:46:26.863Z,88.90
2023-01-26T15:48:57.584Z,89.13
2023-01-26T15:51:26.931Z,88.56
2023-01-26T15:53:58.524Z,88.56
2023-01-26T15:56:31.225Z,88.45
2023-01-26T15:59:03.622Z,88.67
2023-01-26T16:01:37.106Z,88.48
2023-01-26T16:04:05.507Z,88.81
2023-01-26T16:06:37.671Z,89.08
2023-01-26T16:09:13.497Z,89.16
2023-01-26T16:11:56.072Z,89.42
2023-01-26T16:14:29.998Z,89.69
2023-01-26T16:16:59.369Z,89.82
2023-01-26T16:19:35.422Z,90.02
2023-01-26T16:22:08.035Z,90.03
2023-01-26T16:24:39.563Z,90.53
2023-01-26T16:27:10.177Z,90.53
2023-01-26T16:29:43.660Z,90.77
2023-01-26T16:32:28.935Z,90.39
2023-01-26T16:35:00.224Z,90.84
2023-01-26T16:37:31.546Z,90.96
2023-01-26T16:40:09.232Z,91.33
2023-01-26T16:42:48.239Z,91.57
2023-01-26T16:45:27.701Z,91.96
2023-01-26T16:48:00.124Z,91.71
2023-01-26T16:50:32.981Z,92.11
2023-01-26T16:53:19.733Z,92.05
2023-01-26T16:55:49.325Z,92.26
2023-01-26T16:58:29.551Z,92.14
2023-01-26T17:00:59.178Z,93.08
2023-01-26T17:03:33.047Z,93.64
2023-01-26T17:06:13.370Z,93.62
2023-01-26T17:08:48.932Z,93.64
2023-01-26T17:11:28.522Z,93.59
2023-01-26T17:14:02.734Z,93.31
2023-01-26T17:16:43.786Z,93.06
2023-01-26T17:19:13.140Z,93.18
2023-01-26T17:21:44.650Z,93.30
2023-01-26T17:24:15.053Z,93.58
2023-01-26T17:26:43.083Z,93.57
2023-01-26T17:29:18.515Z,93.18
2023-01-26T17:31:49.411Z,93.06
2023-01-26T17:34:22.594Z,93.16
2023-01-26T17:36:57.615Z,93.43
2023-01-26T17:39:27.577Z,93.37
2023-01-26T17:41:58.872Z,93.41
2023-01-26T17:44:29.317Z,93.46
2023-01-26T17:47:03.137Z,92.77
2023-01-26T17:49:36.610Z,93.09
2023-01-26T17:52:06.616Z,92.28
2023-01-26T17:54:40.670Z,92.52
2023-01-26T17:57:17.879Z,92.17
2023-01-26T17:59:49.059Z,92.41
2023-01-26T18:02:22.072Z,93.23
2023-01-26T18:04:55.269Z,93.21
2023-01-26T18:07:31.774Z,92.41
2023-01-26T18:10:04.276Z,92.68
2023-01-26T18:12:34.176Z,92.19
2023-01-26T18:15:06.940Z,92.29
2023-01-26T18:17:39.013Z,91.87
2023-01-26T18:20:11.662Z,92.39
2023-01-26T18:22:43.699Z,92.37
2023-01-26T18:25:14.551Z,92.66
2023-01-26T18:27:46.162Z,92.41
2023-01-26T18:30:15.828Z,92.50
2023-01-26T18:32:47.895Z,92.98
2023-01-26T18:35:18.176Z,93.21
2023-01-26T18:37:47.757Z,93.15
2023-01-26T18:40:23.031Z,92.84
2023-01-26T18:42:56.087Z,92.98
2023-01-26T18:45:27.986Z,92.75
2023-01-26T18:47:57.120Z,93.03
2023-01-26T18:50:27.472Z,92.72
2023-01-26T18:52:59.293Z,92.57
2023-01-26T18:55:34.814Z,92.54
2023-01-26T18:58:03.076Z,93.27
2023-01-26T19:00:33.084Z,93.25
2023-01-26T19:03:02.429Z,93.17
2023-01-26T19:05:34.037Z,92.82
2023-01-26T19:08:11.140Z,92.88
2023-01-26T19:10:41.474Z,93.27
2023-01-26T19:13:13.438Z,93.13
2023-01-26T19:15:49.109Z,92.80
2023-01-26T19:18:19.779Z,93.10
2023-01-26T19:20:58.137Z,92.86
2023-01-26T19:23:29.717Z,93.17
2023-01-26T19:25:58.227Z,93.42
2023-01-26T19:28:28.777Z,93.49
2023-01-26T19:31:07.098Z,93.65
2023-01-26T19:33:37.838Z,93.60
2023-01-26T19:36:08.943Z,94.09
2023-01-26T19:38:41.007Z,93.67
2023-01-26T19:41:10.915Z,93.49
2023-01-26T19:43:39.302Z,93.25
2023-01-26T19:46:09.790Z,93.33
2023-01-26T19:48:39.523Z,93.16
2023-01-26T19:51:13.585Z,93.68
2023-01-26T19:53:45.253Z,93.69
2023-01-26T19:56:18.290Z,93.94
2023-01-26T19:59:01.742Z,94.42
2023-01-26T20:01:31.946Z,94.46
2023-01-26T20:04:03.203Z,94.35
2023-01-26T20:06:34.096Z,94.93
2023-01-26T20:09:06.164Z,94.42
2023-01-26T20:11:35.091Z,93.65
2023-01-26T20:14:11.669Z,93.18
2023-01-26T20:16:40.356Z,92.80
2023-01-26T20:19:09.176Z,93.21
2023-01-26T20:21:39.033Z,92.32
2023-01-26T20:24:15.431Z,92.19
2023-01-26T20:26:44.767Z,92.41
2023-01-26T20:29:19.286Z,92.31
2023-01-26T20:31:51.515Z,92.41
2023-01-26T20:34:22.121Z,92.49
2023-01-26T20:36:50.636Z,92.58
2023-01-26T20:39:25.444Z,92.66
2023-01-26T20:41:55.186Z,93.33
2023-01-26T20:44:23.268Z,93.40
2023-01-26T20:46:51.200Z,93.75
2023-01-26T20:49:19.712Z,93.27
2023-01-26T20:51:47.981Z,93.47
2023-01-26T20:54:18.315Z,93.69
2023-01-26T20:56:46.683Z,93.50
2023-01-26T20:59:14.580Z,93.40
2023-01-26T21:01:42.316Z,93.25
2023-01-26T21:04:10.752Z,93.30
2023-01-26T21:06:39.917Z,94.16
2023-01-26T21:09:09.134Z,93.80
2023-01-26T21:11:39.055Z,93.32
2023-01-26T21:14:06.786Z,93.54
2023-01-26T21:16:36.316Z,93.27
2023-01-26T21:19:04.528Z,93.66
2023-01-26T21:21:32.821Z,93.43
2023-01-26T21:24:00.854Z,93.31
2023-01-26T21:26:29.144Z,92.80
2023-01-26T21:29:01.032Z,92.99
2023-01-26T21:31:31.145Z,93.10
2023-01-26T21:34:00.221Z,93.13
2023-01-26T21:36:31.188Z,93.42
2023-01-26T21:39:00.638Z,93.02
2023-01-26T21:41:49.558Z,92.61
2023-01-26T21:44:20.514Z,92.37
2023-01-26T21:46:56.817Z,92.47
2023-01-26T21:49:25.954Z,93.10
2023-01-26T21:52:12.197Z,93.10
2023-01-26T21:54:40.453Z,92.70
2023-01-26T21:57:28.328Z,92.77
2023-01-26T21:59:56.819Z,92.66
2023-01-26T22:02:24.570Z,92.74
2023-01-26T22:04:52.732Z,92.34
2023-01-26T22:07:20.525Z,93.09
2023-01-26T22:09:48.485Z,92.81
2023-01-26T22:12:19.953Z,92.91
2023-01-26T22:14:47.755Z,92.79
2023-01-26T22:17:15.600Z,92.05
2023-01-26T22:19:43.803Z,92.14
2023-01-26T22:22:12.927Z,91.85
2023-01-26T22:24:43.784Z,92.38
2023-01-26T22:27:15.074Z,92.28
2023-01-26T22:29:42.876Z,92.57
2023-01-26T22:32:11.224Z,92.29
2023-01-26T22:34:42.012Z,91.92
2023-01-26T22:37:09.724Z,92.29
2023-01-26T22:39:41.282Z,91.41
2023-01-26T22:42:08.950Z,91.37
2023-01-26T22:44:37.203Z,92.07
2023-01-26T22:47:05.108Z,92.43
2023-01-26T22:49:35.798Z,92.65
2023-01-26T22:52:07.075Z,92.69
2023-01-26T22:54:34.878Z,92.55
2023-01-26T22:57:03.221Z,91.24
2023-01-26T22:59:34.221Z,91.85
2023-01-26T23:02:02.038Z,92.61
2023-01-26T23:04:30.307Z,92.37
2023-01-26T23:06:58.164Z,92.89
2023-01-26T23:09:29.218Z,92.50
2023-01-26T23:12:03.158Z,92.28
2023-01-26T23:14:31.630Z,92.13
2023-01-26T23:16:59.787Z,92.50
2023-01-26T23:19:27.733Z,91.96
2023-01-26T23:21:58.627Z,91.54
2023-01-26T23:24:29.885Z,91.84
2023-01-26T23:27:00.768Z,91.79
2023-01-26T23:29:29.029Z,92.20
2023-01-26T23:31:56.852Z,91.52
2023-01-26T23:34:25.060Z,91.85
2023-01-26T23:36:53.306Z,91.83
2023-01-26T23:39:21.113Z,91.79
2023-01-26T23:41:48.970Z,92.23
2023-01-26T23:44:20.529Z,92.53
2023-01-26T23:46:48.416Z,91.53
2023-01-26T23:49:16.207Z,91.82
2023-01-26T23:51:44.265Z,91.92
2023-01-26T23:54:12.114Z,92.67
2023-01-26T23:56:39.929Z,93.20
2023-01-26T23:59:08.139Z,92.25
